Casa Grande, AZ (85193)

6:46 AM MST on August 26, 2016 (GMT -0700)
Az cty | | Change Station

Elev 1493 ft 32.74 °N, 111.68 °W | Updated 39 seconds ago

Partly Cloudy
Partly Cloudy
79.5 °F
Feels Like 80 °F
N
0.0
Wind Variable Wind from SW
Gusts 0.0 mph

Today
High -- | Low -- °F
--% Chance of Precip.
Yesterday
High -- | Low -- °F
Precip. -- in
Pressure 29.96 in
Visibility 10.0 miles
Clouds Few 12000 ft
Heat Index 80 °F
Dew Point 59 °F
Humidity 50%
Rainfall 0.00 in
Snow Depth Not available.
5:58 AM 6:59 PM
Waning Crescent, 34% visible
METAR KCGZ 261335Z AUTO 28003KT 10SM FEW120 27/16 A2996 RMK AO1
Pressure 29.96 in
Visibility 10.0 miles
Clouds Few 12000 ft
Heat Index 80 °F
Dew Point 59 °F
Humidity 50%
Rainfall 0.00 in
Snow Depth Not available.
5:58 AM 6:59 PM
Waning Crescent, 34% visible
METAR KCGZ 261335Z AUTO 28003KT 10SM FEW120 27/16 A2996 RMK AO1

10-Day Weather Forecast

Almanac

Astronomy

Aug. 26, 2016 Rise Set
Actual Time
Civil Twilight
Nautical Twilight
Astronomical Twilight
Moon
Length of Visible Light
Length of Day
Tomorrow will be .
, % of the Moon is Illuminated

Today's Extremes

State Highs State Lows

Community

WunderPhotos

Upload Photos

1,935,084 photos uploaded!

WunderBlog® & News

Nearby

Air Quality

  Air Quality AQ Index Pollutant
Not available.

Snow Depth

Station Depth Elevation

Earthquake Activity

City Distance Mag. Time & Date
Minimum magnitude displayed is 2.5.

Coastal Water Temperatures

Place Temperature

Stations

Nearby Weather Stations

Station Location Temp. Windchill Dew Point Humidity Wind Precip. Elev Updated Type
                   

Watches & Warnings

There are currently no watches in effect.